首页
METAR-TAF:

METAR-TAF

机场 :

斯德哥爾摩-阿蘭達, 瑞典

斯德哥爾摩-阿蘭達機場

纬度: 59-39N, 经度: 017-57E, 海拔: 38米

当前天气观测

该预报发布于30分钟前的21:50 UTC
风速6节,风向西转西北
温度 6°C
湿度 93%
气压 997 hPa
能见度10公里或以上
1500米以下无云,无积雨云

METAR: ESSA 252150Z 29006KT CAVOK 06/05 Q0997 NOSIG

时间: 00:20 (22:20 UTC)

预报

该预报发布于4小时和50分钟前的17:30 UTC
预报有效从25日的 18点(UTC)到 26日的 18点(UTC)
风速10节,风向东北
能见度10公里或以上
1500米以下无云,无积雨云
短暂存在
从 25日的 18点(UTC)到 25日的 22点(UTC)
多云层高于4000英尺, 积雨云.
几率 40%
从 25日的 18点(UTC)到 25日的 20点(UTC)
阵雨
成为
从 25日的 19点(UTC)到 25日的 21点(UTC)
风速2节,风向多变
几率 40%
从 25日的 22点(UTC)到 26日的 05点(UTC)
能見度: 4000
轻雾
短暂存在
从 26日的 08点(UTC)到 26日的 11点(UTC)
多云层高于1200英尺
多云层高于3000英尺, 积雨云.
阵雨

TAF: ESSA 251730Z 2518/2618 04010KT CAVOK TEMPO 2518/2522 BKN040CB PROB40 2518/2520 SHRA BECMG 2519/2521 VRB02KT PROB40 2522/2605 4000 BR TEMPO 2608/2611 SHRA BKN012 BKN030CB

超过4000个机场的气象观测和天气预报(METAR&TAF报告)。

可查询的气象台以黄色和红色小点在地图上表示。

将鼠标移到小点上方,可查看气象台名称。

然后点击查看天气观测和预报。

如需切换地图:点击带黑十字的绿色按钮放大地图;点击带横线的绿色按钮缩小地图;或者点击绿色箭头查看邻近地区的地图。


METAR-TAF: